Time;durP1;ratioP1;P1;durP2;ratioP2;P2;SDS_P1;SDS_P2;PMS_P1;PMS_P2;Temp;Humidity;BMP_temperature;BMP_pressure;BME280_temperature;BME280_humidity;BME280_pressure;Samples;Min_cycle;Max_cycle;Signal;HPM_P1;HPM_P2
2022/12/12 00:01:11;;;;;;;27.67;10.10;;;;;;;;;;5009285;28;20034;-59
2022/12/12 00:03:36;;;;;;;26.63;9.15;;;;;;;;;;5008155;28;20036;-61
2022/12/12 00:06:03;;;;;;;26.03;9.50;;;;;;;;;;5009948;28;20117;-60
2022/12/12 00:08:28;;;;;;;24.95;9.13;;;;;;;;;;4992799;28;20014;-60
2022/12/12 00:10:54;;;;;;;23.63;8.97;;;;;;;;;;5008723;28;20045;-62
2022/12/12 00:13:19;;;;;;;27.87;10.60;;;;;;;;;;5007252;28;20029;-61
2022/12/12 00:15:44;;;;;;;27.23;9.77;;;;;;;;;;5002207;28;20029;-60
2022/12/12 00:18:09;;;;;;;24.87;8.27;;;;;;;;;;5013529;28;20416;-59
2022/12/12 00:20:34;;;;;;;26.97;8.87;;;;;;;;;;5021032;28;20456;-59
2022/12/12 00:22:59;;;;;;;25.90;9.37;;;;;;;;;;5011278;28;20022;-60
2022/12/12 00:25:25;;;;;;;26.83;9.60;;;;;;;;;;5009349;28;20475;-60
2022/12/12 00:27:50;;;;;;;22.87;8.67;;;;;;;;;;5010851;28;20018;-60
2022/12/12 00:30:16;;;;;;;26.47;8.30;;;;;;;;;;5009455;28;20033;-59
2022/12/12 00:32:41;;;;;;;23.10;8.13;;;;;;;;;;5010531;28;20017;-59
2022/12/12 00:35:06;;;;;;;23.87;8.87;;;;;;;;;;5009503;28;20021;-59
2022/12/12 00:37:31;;;;;;;26.02;9.48;;;;;;;;;;5010310;28;20108;-58
2022/12/12 00:39:56;;;;;;;26.20;9.00;;;;;;;;;;5009918;28;20026;-59
2022/12/12 00:42:22;;;;;;;27.57;9.70;;;;;;;;;;5008999;28;20030;-59
2022/12/12 00:44:47;;;;;;;29.47;9.83;;;;;;;;;;5010903;28;20029;-58
2022/12/12 00:47:12;;;;;;;28.07;9.53;;;;;;;;;;5009007;28;20033;-59
2022/12/12 00:49:37;;;;;;;27.40;10.20;;;;;;;;;;5009900;28;20021;-59
2022/12/12 00:52:02;;;;;;;25.73;8.80;;;;;;;;;;5010654;28;20022;-58
2022/12/12 00:54:28;;;;;;;24.90;8.48;;;;;;;;;;5010330;28;20036;-58
2022/12/12 00:56:53;;;;;;;24.63;8.45;;;;;;;;;;5008765;28;20065;-58
2022/12/12 00:59:18;;;;;;;26.30;9.40;;;;;;;;;;5010023;28;20029;-58
2022/12/12 01:01:44;;;;;;;26.53;9.37;;;;;;;;;;5010273;28;20038;-58
2022/12/12 01:04:09;;;;;;;25.90;9.55;;;;;;;;;;5009975;28;20056;-59
2022/12/12 01:06:35;;;;;;;27.17;8.68;;;;;;;;;;5008718;28;20393;-58
2022/12/12 01:09:00;;;;;;;26.45;8.52;;;;;;;;;;5009670;28;20034;-59
2022/12/12 01:11:26;;;;;;;26.10;8.48;;;;;;;;;;5010499;28;20050;-58
2022/12/12 01:13:51;;;;;;;24.60;8.47;;;;;;;;;;5009261;28;20084;-58
2022/12/12 01:16:17;;;;;;;23.58;8.73;;;;;;;;;;5008858;28;20091;-57
2022/12/12 01:18:42;;;;;;;25.35;9.00;;;;;;;;;;5006940;28;20018;-57
2022/12/12 01:21:09;;;;;;;27.10;8.87;;;;;;;;;;5009814;28;20057;-58
2022/12/12 01:23:34;;;;;;;26.77;8.77;;;;;;;;;;5009153;28;20022;-56
2022/12/12 01:26:07;;;;;;;28.03;9.33;;;;;;;;;;5011841;28;20030;-57
2022/12/12 01:28:33;;;;;;;26.23;9.93;;;;;;;;;;5005349;28;20041;-58
2022/12/12 01:30:58;;;;;;;27.02;9.88;;;;;;;;;;5008457;28;20044;-56
2022/12/12 01:33:23;;;;;;;24.57;8.67;;;;;;;;;;5009310;28;20052;-56
2022/12/12 01:35:49;;;;;;;24.43;8.63;;;;;;;;;;5007447;28;20053;-58
2022/12/12 01:38:14;;;;;;;28.23;9.90;;;;;;;;;;5007083;28;20049;-57
2022/12/12 01:40:39;;;;;;;25.57;9.40;;;;;;;;;;5009449;28;20465;-57
2022/12/12 01:43:14;;;;;;;24.37;8.53;;;;;;;;;;5007476;28;20033;-57
2022/12/12 01:45:51;;;;;;;26.52;10.18;;;;;;;;;;5009106;28;20430;-57
2022/12/12 01:48:17;;;;;;;24.23;8.88;;;;;;;;;;5006061;28;20033;-56
2022/12/12 01:50:43;;;;;;;22.63;8.52;;;;;;;;;;5007357;28;20030;-58
2022/12/12 01:53:09;;;;;;;24.65;8.73;;;;;;;;;;5005066;28;20049;-56
2022/12/12 01:55:34;;;;;;;25.38;9.05;;;;;;;;;;5010165;28;20034;-58
2022/12/12 01:58:00;;;;;;;22.33;7.90;;;;;;;;;;5010359;28;20083;-57
2022/12/12 02:00:25;;;;;;;24.17;8.70;;;;;;;;;;5011384;28;20150;-57
2022/12/12 02:02:52;;;;;;;24.33;9.10;;;;;;;;;;5013111;28;20044;-57
2022/12/12 02:05:22;;;;;;;26.35;9.48;;;;;;;;;;5010759;28;20437;-57
2022/12/12 02:07:47;;;;;;;24.85;8.80;;;;;;;;;;5012749;28;20022;-57
2022/12/12 02:10:13;;;;;;;25.07;9.03;;;;;;;;;;5011470;28;20465;-57
2022/12/12 02:12:38;;;;;;;24.75;9.13;;;;;;;;;;4994657;28;20057;-56
2022/12/12 02:15:03;;;;;;;30.07;10.00;;;;;;;;;;5012946;28;20038;-56
2022/12/12 02:17:44;;;;;;;28.05;9.20;;;;;;;;;;5010979;28;20026;-56
2022/12/12 02:20:13;;;;;;;23.85;9.32;;;;;;;;;;5010975;28;20452;-57
2022/12/12 02:22:50;;;;;;;24.48;8.75;;;;;;;;;;5009951;28;20049;-57
2022/12/12 02:25:29;;;;;;;25.55;8.93;;;;;;;;;;5012698;28;20021;-57
2022/12/12 02:27:54;;;;;;;26.33;9.23;;;;;;;;;;5005362;28;20034;-57
2022/12/12 02:30:21;;;;;;;26.63;9.80;;;;;;;;;;5011324;28;20079;-57
2022/12/12 02:33:04;;;;;;;27.48;9.20;;;;;;;;;;5012281;28;20030;-56
2022/12/12 02:35:30;;;;;;;28.23;10.32;;;;;;;;;;5010692;28;20194;-56
2022/12/12 02:38:01;;;;;;;24.37;8.63;;;;;;;;;;5012982;28;20022;-55
2022/12/12 02:40:33;;;;;;;27.35;10.15;;;;;;;;;;4994048;28;20021;-55
2022/12/12 02:43:24;;;;;;;31.30;10.32;;;;;;;;;;5008229;28;20034;-56
2022/12/12 02:45:53;;;;;;;28.58;9.65;;;;;;;;;;4988126;28;20030;-57
2022/12/12 02:48:22;;;;;;;29.48;9.50;;;;;;;;;;5010738;28;20547;-55
2022/12/12 02:50:49;;;;;;;25.92;9.40;;;;;;;;;;5009892;28;20061;-55
2022/12/12 02:53:18;;;;;;;28.58;9.75;;;;;;;;;;5010500;28;20026;-54
2022/12/12 02:55:43;;;;;;;26.30;9.32;;;;;;;;;;5012740;28;20477;-55
2022/12/12 02:58:08;;;;;;;27.20;10.33;;;;;;;;;;5012893;28;20014;-55
2022/12/12 03:00:39;;;;;;;23.03;8.93;;;;;;;;;;4994408;28;20033;-55
2022/12/12 03:09:17;;;;;;;25.48;9.00;;;;;;;;;;5009358;28;20045;-56
2022/12/12 03:12:03;;;;;;;25.90;9.45;;;;;;;;;;5017625;28;20068;-55
2022/12/12 03:14:45;;;;;;;24.48;9.23;;;;;;;;;;5010659;28;20050;-55
2022/12/12 03:17:46;;;;;;;31.20;10.65;;;;;;;;;;5010583;28;20037;-55
2022/12/12 03:20:18;;;;;;;30.15;9.98;;;;;;;;;;5000065;28;20061;-55
2022/12/12 03:23:16;;;;;;;26.95;9.90;;;;;;;;;;4992207;28;20411;-55
2022/12/12 03:25:47;;;;;;;27.63;10.38;;;;;;;;;;4963119;28;20026;-55
2022/12/12 03:28:12;;;;;;;28.88;8.77;;;;;;;;;;5012592;28;20379;-55
2022/12/12 03:30:40;;;;;;;27.70;9.35;;;;;;;;;;5011186;28;20373;-55
2022/12/12 03:33:14;;;;;;;30.10;10.43;;;;;;;;;;5012183;28;20105;-55
2022/12/12 03:35:42;;;;;;;26.35;9.88;;;;;;;;;;5012152;28;20025;-55
2022/12/12 03:38:22;;;;;;;28.80;9.93;;;;;;;;;;5012227;28;20030;-56
2022/12/12 03:40:57;;;;;;;27.90;9.82;;;;;;;;;;5010757;28;20422;-56
2022/12/12 03:43:25;;;;;;;30.00;9.63;;;;;;;;;;5011604;28;20034;-56
2022/12/12 03:45:53;;;;;;;27.65;10.45;;;;;;;;;;5012136;28;20026;-56
2022/12/12 03:48:22;;;;;;;27.27;9.77;;;;;;;;;;5027455;28;20022;-56
2022/12/12 03:50:49;;;;;;;26.45;9.73;;;;;;;;;;5031343;28;20425;-57
2022/12/12 03:53:17;;;;;;;26.58;9.02;;;;;;;;;;5016539;28;20385;-57
2022/12/12 03:55:47;;;;;;;27.25;10.18;;;;;;;;;;5011337;28;20032;-57
2022/12/12 03:58:35;;;;;;;31.05;10.38;;;;;;;;;;5007957;28;20157;-58
2022/12/12 04:01:03;;;;;;;25.45;9.18;;;;;;;;;;4990127;28;20121;-59
2022/12/12 04:03:49;;;;;;;23.73;8.70;;;;;;;;;;5010478;28;20112;-59
2022/12/12 04:06:26;;;;;;;26.10;9.40;;;;;;;;;;4997230;28;20026;-60
2022/12/12 04:14:40;;;;;;;29.08;9.95;;;;;;;;;;5009098;28;20076;-60
2022/12/12 04:17:07;;;;;;;23.42;8.93;;;;;;;;;;5009626;28;20566;-60
2022/12/12 04:25:30;;;;;;;24.45;8.35;;;;;;;;;;4984772;28;20123;-60
2022/12/12 04:27:59;;;;;;;26.42;9.38;;;;;;;;;;5008397;28;20041;-60
2022/12/12 04:30:28;;;;;;;25.02;8.88;;;;;;;;;;5008676;28;20025;-60
2022/12/12 04:33:04;;;;;;;23.45;7.80;;;;;;;;;;5010793;28;20030;-60
2022/12/12 04:35:34;;;;;;;24.67;9.10;;;;;;;;;;5009861;28;20061;-59
2022/12/12 04:38:02;;;;;;;24.65;8.93;;;;;;;;;;5011273;28;20037;-59
2022/12/12 04:40:27;;;;;;;26.45;10.40;;;;;;;;;;5012369;28;20028;-61
2022/12/12 04:42:54;;;;;;;26.73;8.90;;;;;;;;;;5010310;28;20030;-60
2022/12/12 04:45:22;;;;;;;25.75;8.20;;;;;;;;;;5010695;28;20365;-60
2022/12/12 04:47:49;;;;;;;25.08;8.57;;;;;;;;;;5021079;28;20017;-60
2022/12/12 04:50:15;;;;;;;25.83;9.00;;;;;;;;;;5019327;28;20040;-60
2022/12/12 04:52:40;;;;;;;22.95;8.15;;;;;;;;;;5026201;28;20387;-60
2022/12/12 04:55:13;;;;;;;25.42;8.63;;;;;;;;;;5030726;28;20519;-60
2022/12/12 04:57:41;;;;;;;27.15;9.50;;;;;;;;;;5030331;28;20020;-60
2022/12/12 05:00:07;;;;;;;27.35;9.45;;;;;;;;;;5013061;28;20543;-60
2022/12/12 05:02:38;;;;;;;22.20;8.45;;;;;;;;;;5014584;28;20025;-60
2022/12/12 05:05:10;;;;;;;26.13;8.50;;;;;;;;;;5017196;28;20018;-59
2022/12/12 05:07:37;;;;;;;22.95;8.13;;;;;;;;;;5009695;28;20025;-60
2022/12/12 05:10:05;;;;;;;25.25;8.88;;;;;;;;;;5008634;28;20076;-61
2022/12/12 05:12:38;;;;;;;24.15;8.32;;;;;;;;;;5010280;28;20497;-60
2022/12/12 05:15:03;;;;;;;23.77;8.45;;;;;;;;;;5008275;28;20057;-61
2022/12/12 05:17:34;;;;;;;24.58;9.00;;;;;;;;;;5009298;28;20041;-60
2022/12/12 05:19:59;;;;;;;25.65;9.30;;;;;;;;;;5008902;28;20477;-59
2022/12/12 05:22:24;;;;;;;25.07;8.70;;;;;;;;;;5007883;28;20040;-61
2022/12/12 05:24:49;;;;;;;25.10;9.47;;;;;;;;;;5009334;28;20111;-58
2022/12/12 05:27:14;;;;;;;22.93;9.23;;;;;;;;;;5010878;28;20018;-60
2022/12/12 05:29:39;;;;;;;25.33;8.30;;;;;;;;;;5012193;28;20388;-59
2022/12/12 05:32:05;;;;;;;25.13;9.20;;;;;;;;;;5012652;28;20010;-60
2022/12/12 05:34:30;;;;;;;23.33;8.30;;;;;;;;;;5006165;28;20033;-59
2022/12/12 05:36:55;;;;;;;24.40;9.00;;;;;;;;;;5013504;28;20540;-60
2022/12/12 05:39:21;;;;;;;27.85;9.80;;;;;;;;;;5007733;28;20445;-60
2022/12/12 05:41:46;;;;;;;26.23;9.45;;;;;;;;;;5011053;28;20494;-59
2022/12/12 05:44:11;;;;;;;25.40;8.70;;;;;;;;;;5011107;28;20125;-59
2022/12/12 05:46:36;;;;;;;26.13;8.87;;;;;;;;;;5012227;28;20048;-59
2022/12/12 05:49:02;;;;;;;26.63;8.50;;;;;;;;;;5010429;28;20033;-60
2022/12/12 05:51:27;;;;;;;26.50;9.38;;;;;;;;;;5010828;28;20058;-59
2022/12/12 05:53:52;;;;;;;23.73;9.27;;;;;;;;;;5003152;28;20065;-59
2022/12/12 05:56:18;;;;;;;25.53;9.13;;;;;;;;;;5007657;28;20396;-60
2022/12/12 05:58:43;;;;;;;23.63;8.07;;;;;;;;;;5008179;28;20503;-60
2022/12/12 06:01:09;;;;;;;22.07;8.47;;;;;;;;;;5010098;28;20026;-60
2022/12/12 06:03:34;;;;;;;23.38;8.27;;;;;;;;;;5007823;28;20025;-60
2022/12/12 06:05:59;;;;;;;26.00;9.10;;;;;;;;;;5011596;28;20486;-59
2022/12/12 06:08:25;;;;;;;23.70;8.50;;;;;;;;;;5009513;28;20024;-60
2022/12/12 06:10:50;;;;;;;24.48;8.75;;;;;;;;;;5009935;28;20030;-60
2022/12/12 06:13:15;;;;;;;27.25;9.10;;;;;;;;;;4987329;28;20484;-60
2022/12/12 06:15:40;;;;;;;26.30;9.50;;;;;;;;;;5011949;28;20496;-61
2022/12/12 06:18:06;;;;;;;21.60;8.33;;;;;;;;;;5013306;28;20034;-59
2022/12/12 06:20:32;;;;;;;25.20;9.25;;;;;;;;;;5010845;28;20025;-59
2022/12/12 06:22:57;;;;;;;28.33;9.87;;;;;;;;;;5012783;28;20037;-60
2022/12/12 06:25:23;;;;;;;25.08;8.80;;;;;;;;;;5006473;28;20029;-60
2022/12/12 06:27:48;;;;;;;28.17;9.90;;;;;;;;;;5014048;28;20168;-59
2022/12/12 06:30:13;;;;;;;24.33;9.47;;;;;;;;;;5015736;28;20053;-59
2022/12/12 06:32:38;;;;;;;26.57;8.80;;;;;;;;;;5016628;28;20021;-59
2022/12/12 06:35:04;;;;;;;24.07;9.23;;;;;;;;;;5016850;28;20026;-59
2022/12/12 06:37:29;;;;;;;28.67;10.15;;;;;;;;;;5016373;28;20032;-60
2022/12/12 06:39:54;;;;;;;29.00;9.63;;;;;;;;;;5011175;28;20033;-59
2022/12/12 06:42:19;;;;;;;27.77;10.07;;;;;;;;;;5013100;28;20424;-59
2022/12/12 06:44:44;;;;;;;26.95;9.20;;;;;;;;;;5013176;28;20065;-60
2022/12/12 06:47:10;;;;;;;28.40;9.93;;;;;;;;;;5013186;28;20456;-60
2022/12/12 06:49:35;;;;;;;26.67;10.00;;;;;;;;;;5013330;28;20096;-60
2022/12/12 06:52:00;;;;;;;28.10;10.43;;;;;;;;;;5006269;28;20026;-60
2022/12/12 06:54:25;;;;;;;27.53;10.20;;;;;;;;;;5012321;28;20021;-59
2022/12/12 06:56:50;;;;;;;26.33;9.53;;;;;;;;;;5011325;28;20025;-60
2022/12/12 06:59:16;;;;;;;25.37;10.67;;;;;;;;;;5013248;28;20033;-60
2022/12/12 07:01:41;;;;;;;25.83;9.43;;;;;;;;;;5011072;28;20432;-60
2022/12/12 07:04:06;;;;;;;24.20;9.87;;;;;;;;;;5011170;28;20025;-60
2022/12/12 07:06:31;;;;;;;33.10;10.97;;;;;;;;;;5010686;28;20548;-60
2022/12/12 07:08:57;;;;;;;24.70;9.27;;;;;;;;;;5011220;28;20042;-61
2022/12/12 07:11:23;;;;;;;25.35;9.38;;;;;;;;;;5006749;28;20021;-61
2022/12/12 07:13:48;;;;;;;25.17;9.98;;;;;;;;;;4998854;28;20073;-60
2022/12/12 07:16:14;;;;;;;29.95;10.70;;;;;;;;;;5007300;28;20066;-60
2022/12/12 07:18:40;;;;;;;27.90;10.57;;;;;;;;;;5006181;28;20022;-61
2022/12/12 07:21:06;;;;;;;28.75;10.75;;;;;;;;;;5009078;28;20037;-60
2022/12/12 07:23:31;;;;;;;28.42;10.07;;;;;;;;;;5009169;28;20022;-60
2022/12/12 07:25:56;;;;;;;25.55;10.63;;;;;;;;;;5008588;28;20022;-61
2022/12/12 07:28:22;;;;;;;28.70;10.03;;;;;;;;;;5010247;28;20437;-61
2022/12/12 07:30:47;;;;;;;28.00;10.02;;;;;;;;;;5009892;28;20024;-60
2022/12/12 07:33:13;;;;;;;25.90;9.80;;;;;;;;;;5010805;28;20040;-60
2022/12/12 07:35:38;;;;;;;24.90;9.77;;;;;;;;;;5005949;28;20096;-60
2022/12/12 07:38:04;;;;;;;24.17;9.35;;;;;;;;;;5006978;28;20025;-60
2022/12/12 07:40:29;;;;;;;26.75;10.25;;;;;;;;;;5010501;28;20045;-61
2022/12/12 07:42:55;;;;;;;27.10;10.80;;;;;;;;;;5007068;28;20030;-61
2022/12/12 07:45:20;;;;;;;25.47;9.07;;;;;;;;;;4998316;28;20465;-61
2022/12/12 07:47:45;;;;;;;24.97;10.37;;;;;;;;;;4992193;28;20023;-60
2022/12/12 07:50:11;;;;;;;25.90;9.23;;;;;;;;;;5005522;28;20025;-60
2022/12/12 07:52:36;;;;;;;23.93;9.80;;;;;;;;;;5006786;28;20315;-59
2022/12/12 07:55:01;;;;;;;24.87;9.77;;;;;;;;;;5011292;28;20025;-59
2022/12/12 07:57:27;;;;;;;23.58;9.30;;;;;;;;;;5010613;28;20095;-59
2022/12/12 07:59:52;;;;;;;23.52;9.68;;;;;;;;;;5010165;28;20080;-59
2022/12/12 08:02:17;;;;;;;22.87;9.13;;;;;;;;;;5007043;28;20129;-60
2022/12/12 08:04:43;;;;;;;26.03;10.37;;;;;;;;;;5008474;28;20096;-60
2022/12/12 08:07:08;;;;;;;22.33;9.30;;;;;;;;;;5010469;28;20022;-60
2022/12/12 08:09:34;;;;;;;23.47;10.13;;;;;;;;;;5009579;28;20026;-59
2022/12/12 08:11:59;;;;;;;22.48;8.85;;;;;;;;;;5007862;28;20097;-59
2022/12/12 08:14:25;;;;;;;25.75;9.68;;;;;;;;;;5007064;28;20128;-58
2022/12/12 08:16:50;;;;;;;22.80;8.43;;;;;;;;;;5010393;28;20037;-59
2022/12/12 08:19:15;;;;;;;20.48;8.13;;;;;;;;;;5011986;28;20025;-59
2022/12/12 08:21:41;;;;;;;21.90;9.47;;;;;;;;;;5009769;28;20048;-59
2022/12/12 08:24:07;;;;;;;24.75;9.02;;;;;;;;;;5010431;28;20092;-60
2022/12/12 08:26:32;;;;;;;20.42;8.75;;;;;;;;;;5011328;28;20506;-59
2022/12/12 08:28:58;;;;;;;19.63;8.33;;;;;;;;;;5011328;28;20029;-59
2022/12/12 08:31:23;;;;;;;20.33;7.60;;;;;;;;;;5010429;28;20117;-59
2022/12/12 08:33:52;;;;;;;22.17;8.88;;;;;;;;;;5011317;28;20357;-60
2022/12/12 08:36:19;;;;;;;21.58;9.18;;;;;;;;;;5009462;28;20468;-60
2022/12/12 08:38:45;;;;;;;17.30;7.75;;;;;;;;;;5011535;28;20017;-60
2022/12/12 08:41:11;;;;;;;18.55;8.13;;;;;;;;;;5011031;28;20358;-60
2022/12/12 08:43:36;;;;;;;20.70;8.38;;;;;;;;;;5010941;28;20080;-60
2022/12/12 08:46:02;;;;;;;19.58;7.97;;;;;;;;;;5008443;28;20017;-60
2022/12/12 08:48:28;;;;;;;20.52;8.23;;;;;;;;;;5009415;28;20030;-60
2022/12/12 08:50:53;;;;;;;20.05;8.18;;;;;;;;;;5011004;28;20541;-60
2022/12/12 08:53:18;;;;;;;23.30;8.15;;;;;;;;;;5011157;28;20479;-61
2022/12/12 08:55:43;;;;;;;18.70;7.97;;;;;;;;;;5010792;28;20018;-61
2022/12/12 08:58:09;;;;;;;22.50;8.47;;;;;;;;;;5008391;28;20030;-60
2022/12/12 09:00:34;;;;;;;18.63;7.80;;;;;;;;;;5011370;28;20153;-61
2022/12/12 09:02:59;;;;;;;17.57;7.23;;;;;;;;;;5006690;28;20473;-61
2022/12/12 09:05:24;;;;;;;17.70;7.87;;;;;;;;;;5008707;28;20443;-60
2022/12/12 09:07:49;;;;;;;21.60;8.27;;;;;;;;;;5010634;28;20030;-61
2022/12/12 09:10:15;;;;;;;18.07;7.47;;;;;;;;;;5009954;28;20088;-59
2022/12/12 09:12:40;;;;;;;20.88;8.90;;;;;;;;;;5010684;28;20497;-61
2022/12/12 09:15:06;;;;;;;22.10;8.83;;;;;;;;;;5010603;28;20058;-60
2022/12/12 09:17:31;;;;;;;20.20;8.60;;;;;;;;;;5010860;28;20026;-61
2022/12/12 09:19:56;;;;;;;19.97;7.97;;;;;;;;;;5010521;28;20084;-58
2022/12/12 09:22:21;;;;;;;19.47;8.30;;;;;;;;;;5009188;28;20084;-59
2022/12/12 09:24:46;;;;;;;19.87;8.10;;;;;;;;;;5010651;28;20033;-59
2022/12/12 09:27:11;;;;;;;19.63;7.73;;;;;;;;;;5010294;28;20034;-60
2022/12/12 09:29:37;;;;;;;21.73;7.93;;;;;;;;;;5010869;28;20026;-59
2022/12/12 09:32:05;;;;;;;19.17;8.20;;;;;;;;;;5009094;28;20037;-60
2022/12/12 09:34:30;;;;;;;19.42;7.80;;;;;;;;;;5010728;28;20507;-59
2022/12/12 09:36:55;;;;;;;18.52;7.80;;;;;;;;;;5008808;28;20029;-60
2022/12/12 09:39:20;;;;;;;17.73;8.33;;;;;;;;;;5006746;28;20030;-60
2022/12/12 09:41:46;;;;;;;22.40;8.17;;;;;;;;;;5009304;28;20366;-60
2022/12/12 09:44:14;;;;;;;18.40;7.07;;;;;;;;;;5010434;28;20024;-61
2022/12/12 09:46:45;;;;;;;19.40;8.25;;;;;;;;;;4997639;28;20030;-60
2022/12/12 09:49:14;;;;;;;19.67;8.35;;;;;;;;;;4990865;28;20026;-60
2022/12/12 09:51:42;;;;;;;19.95;7.82;;;;;;;;;;5006420;28;20096;-60
2022/12/12 09:54:10;;;;;;;17.77;7.65;;;;;;;;;;5010318;28;20030;-60
2022/12/12 09:56:41;;;;;;;19.10;7.35;;;;;;;;;;5010516;28;20429;-60
2022/12/12 09:59:27;;;;;;;21.48;8.45;;;;;;;;;;5009564;28;20088;-60
2022/12/12 10:01:59;;;;;;;17.80;7.95;;;;;;;;;;5010350;28;20022;-60
2022/12/12 10:04:36;;;;;;;20.17;8.45;;;;;;;;;;5008660;28;20133;-61
2022/12/12 10:07:05;;;;;;;20.55;8.43;;;;;;;;;;5008645;28;20018;-59
2022/12/12 10:09:33;;;;;;;19.02;8.23;;;;;;;;;;4990859;28;20023;-60
2022/12/12 10:11:59;;;;;;;20.58;7.75;;;;;;;;;;4990812;28;20022;-61
2022/12/12 10:14:39;;;;;;;20.58;7.60;;;;;;;;;;5001596;28;20129;-60
2022/12/12 10:17:07;;;;;;;19.02;7.90;;;;;;;;;;5013686;28;20076;-61
2022/12/12 10:19:37;;;;;;;20.95;7.93;;;;;;;;;;5014092;28;20420;-61
2022/12/12 10:22:05;;;;;;;18.65;8.38;;;;;;;;;;5013929;28;20030;-60
2022/12/12 10:24:43;;;;;;;21.80;8.68;;;;;;;;;;5010138;28;20053;-59
2022/12/12 10:27:09;;;;;;;20.05;8.00;;;;;;;;;;5013469;28;20028;-59
2022/12/12 10:29:35;;;;;;;18.73;7.93;;;;;;;;;;5013778;28;20014;-60
2022/12/12 10:32:00;;;;;;;18.58;7.60;;;;;;;;;;5013473;28;20029;-59
2022/12/12 10:34:44;;;;;;;19.83;8.03;;;;;;;;;;5013699;28;20057;-61
2022/12/12 10:37:28;;;;;;;20.15;8.15;;;;;;;;;;5011008;28;20030;-60
2022/12/12 10:39:56;;;;;;;21.27;8.05;;;;;;;;;;5013352;28;20022;-61
2022/12/12 10:42:39;;;;;;;19.73;7.80;;;;;;;;;;5013452;28;20540;-60
2022/12/12 10:45:23;;;;;;;20.58;7.65;;;;;;;;;;5013368;28;20057;-59
2022/12/12 10:47:49;;;;;;;17.92;8.25;;;;;;;;;;5013375;28;20431;-60
2022/12/12 10:50:33;;;;;;;19.90;7.78;;;;;;;;;;5012301;28;20029;-60
2022/12/12 10:53:00;;;;;;;23.25;9.98;;;;;;;;;;5013378;28;20071;-60
2022/12/12 10:55:44;;;;;;;20.90;7.82;;;;;;;;;;5013210;28;20519;-60
2022/12/12 10:58:09;;;;;;;21.30;8.60;;;;;;;;;;5012667;28;20025;-61
2022/12/12 11:00:38;;;;;;;21.90;8.17;;;;;;;;;;5013301;28;20026;-60
2022/12/12 11:03:11;;;;;;;21.75;8.60;;;;;;;;;;5010530;28;20057;-60
2022/12/12 11:05:38;;;;;;;22.08;8.80;;;;;;;;;;5013301;28;20021;-60
2022/12/12 11:08:04;;;;;;;21.65;8.82;;;;;;;;;;5011776;28;20022;-61
2022/12/12 11:10:31;;;;;;;20.13;8.43;;;;;;;;;;5012977;28;20029;-61
2022/12/12 11:13:14;;;;;;;19.15;8.32;;;;;;;;;;5012795;28;20378;-60
2022/12/12 11:15:49;;;;;;;21.30;8.02;;;;;;;;;;5013005;28;20053;-60
2022/12/12 11:18:16;;;;;;;20.52;7.85;;;;;;;;;;5011851;28;20538;-61
2022/12/12 11:20:42;;;;;;;19.77;7.93;;;;;;;;;;5013064;28;20101;-60
2022/12/12 11:23:14;;;;;;;18.77;7.90;;;;;;;;;;5012515;28;20129;-60
2022/12/12 11:25:39;;;;;;;18.40;7.70;;;;;;;;;;5012055;28;20025;-61
2022/12/12 11:28:04;;;;;;;21.17;8.20;;;;;;;;;;5012592;28;20014;-60
2022/12/12 11:30:38;;;;;;;22.63;9.00;;;;;;;;;;5011620;28;20029;-61
2022/12/12 11:33:05;;;;;;;19.10;7.90;;;;;;;;;;5011073;28;20029;-60
2022/12/12 11:35:35;;;;;;;18.35;7.55;;;;;;;;;;5012438;28;20018;-59
2022/12/12 11:38:13;;;;;;;18.70;7.63;;;;;;;;;;5012599;28;20538;-61
2022/12/12 11:40:38;;;;;;;20.00;8.25;;;;;;;;;;5012660;28;20026;-60
2022/12/12 11:43:06;;;;;;;25.83;8.80;;;;;;;;;;5010307;28;20024;-60
2022/12/12 11:45:31;;;;;;;22.85;9.15;;;;;;;;;;5012370;28;20708;-61
2022/12/12 11:47:56;;;;;;;19.43;8.43;;;;;;;;;;5012393;28;20049;-58
2022/12/12 11:50:24;;;;;;;21.58;8.88;;;;;;;;;;5012286;28;20465;-59
2022/12/12 11:52:51;;;;;;;19.23;8.27;;;;;;;;;;5009713;28;20029;-59
2022/12/12 11:55:18;;;;;;;24.15;8.70;;;;;;;;;;5010902;28;20050;-59
2022/12/12 11:57:43;;;;;;;;;;;;;;;;;;5012689;28;20495;-59
2022/12/12 12:00:22;;;;;;;20.48;8.10;;;;;;;;;;4994458;28;20404;-58
2022/12/12 12:03:04;;;;;;;19.98;7.75;;;;;;;;;;5011820;28;20022;-58
2022/12/12 12:05:48;;;;;;;22.58;8.70;;;;;;;;;;5011829;28;20096;-59
2022/12/12 12:08:33;;;;;;;20.10;8.43;;;;;;;;;;5005899;28;20034;-59
2022/12/12 12:10:59;;;;;;;22.63;9.18;;;;;;;;;;5011866;28;20026;-60
2022/12/12 12:13:43;;;;;;;20.55;8.07;;;;;;;;;;5011382;28;20030;-59
2022/12/12 12:16:08;;;;;;;;;;;;;;;;;;5012121;28;20096;-60
2022/12/12 12:18:49;;;;;;;19.75;7.65;;;;;;;;;;5011817;28;19909;-59
2022/12/12 12:21:28;;;;;;;18.67;8.32;;;;;;;;;;5010975;28;20018;-59
2022/12/12 12:23:53;;;;;;;;;;;;;;;;;;5011809;28;20030;-59
2022/12/12 12:26:30;;;;;;;20.33;8.15;;;;;;;;;;5011308;28;19910;-59
2022/12/12 12:29:01;;;;;;;21.30;8.10;;;;;;;;;;5011367;28;20021;-59
2022/12/12 12:31:29;;;;;;;19.75;8.50;;;;;;;;;;5011663;28;20461;-59
2022/12/12 12:34:03;;;;;;;23.05;9.38;;;;;;;;;;5009596;28;20022;-60
2022/12/12 12:36:51;;;;;;;21.63;9.50;;;;;;;;;;5010838;28;20473;-60
2022/12/12 12:39:16;;;;;;;21.23;8.63;;;;;;;;;;5010694;28;20026;-60
2022/12/12 12:41:46;;;;;;;21.00;9.10;;;;;;;;;;5011501;28;20068;-59
2022/12/12 12:44:20;;;;;;;22.10;8.90;;;;;;;;;;5009934;28;20105;-60
2022/12/12 12:46:50;;;;;;;22.05;8.63;;;;;;;;;;5011417;28;20153;-59
2022/12/12 12:49:22;;;;;;;22.80;8.50;;;;;;;;;;5010966;28;20493;-61
2022/12/12 12:51:52;;;;;;;20.65;8.85;;;;;;;;;;5009557;28;20029;-61
2022/12/12 12:54:24;;;;;;;21.30;8.73;;;;;;;;;;5009232;28;20076;-59
2022/12/12 12:57:08;;;;;;;19.88;8.60;;;;;;;;;;5011178;28;20038;-60
2022/12/12 12:59:36;;;;;;;21.27;8.57;;;;;;;;;;5011186;28;20032;-60
2022/12/12 13:02:04;;;;;;;23.48;9.48;;;;;;;;;;5009405;28;20025;-60
2022/12/12 13:04:44;;;;;;;19.80;8.25;;;;;;;;;;5009851;28;20397;-59
2022/12/12 13:07:12;;;;;;;18.35;8.35;;;;;;;;;;5010690;28;20579;-60
2022/12/12 13:09:45;;;;;;;24.20;9.88;;;;;;;;;;5011168;28;20026;-60
2022/12/12 13:12:17;;;;;;;20.85;8.95;;;;;;;;;;5010299;28;20068;-60
2022/12/12 13:14:48;;;;;;;20.42;8.65;;;;;;;;;;5007341;28;20061;-60
2022/12/12 13:17:22;;;;;;;23.05;9.38;;;;;;;;;;5010796;28;20079;-60
2022/12/12 13:19:49;;;;;;;22.92;8.88;;;;;;;;;;5011045;28;20448;-59
2022/12/12 13:22:25;;;;;;;21.10;9.20;;;;;;;;;;5010648;28;20042;-60
2022/12/12 13:25:01;;;;;;;20.10;8.65;;;;;;;;;;5010369;28;20018;-59
2022/12/12 13:27:33;;;;;;;21.48;8.38;;;;;;;;;;5008799;28;20022;-60
2022/12/12 13:30:01;;;;;;;20.30;8.13;;;;;;;;;;5010879;28;20032;-60
2022/12/12 13:32:45;;;;;;;20.23;8.50;;;;;;;;;;5010491;28;20409;-60
2022/12/12 13:35:15;;;;;;;23.17;8.60;;;;;;;;;;5010160;28;20048;-60
2022/12/12 13:37:48;;;;;;;23.00;9.02;;;;;;;;;;5010444;28;20385;-60
2022/12/12 13:40:21;;;;;;;24.13;9.38;;;;;;;;;;5009819;28;20480;-60
2022/12/12 13:42:50;;;;;;;22.00;9.40;;;;;;;;;;5010510;28;20547;-61
2022/12/12 13:45:33;;;;;;;22.05;8.80;;;;;;;;;;5009990;28;20481;-61
2022/12/12 13:48:03;;;;;;;21.27;9.23;;;;;;;;;;5011289;28;20029;-60
2022/12/12 13:50:28;;;;;;;18.25;8.05;;;;;;;;;;5013396;28;20030;-60
2022/12/12 13:53:06;;;;;;;20.38;8.77;;;;;;;;;;5014180;28;20080;-59
2022/12/12 13:55:32;;;;;;;20.60;8.02;;;;;;;;;;5014253;28;20018;-60
2022/12/12 13:57:57;;;;;;;22.95;8.43;;;;;;;;;;5014399;28;20163;-59
2022/12/12 14:00:27;;;;;;;20.30;7.93;;;;;;;;;;5014249;28;20076;-59
2022/12/12 14:02:57;;;;;;;23.65;8.48;;;;;;;;;;5013159;28;20014;-60
2022/12/12 14:05:22;;;;;;;17.15;7.38;;;;;;;;;;5012417;28;20036;-59
2022/12/12 14:08:05;;;;;;;21.67;8.35;;;;;;;;;;5013190;28;20025;-60
2022/12/12 14:10:34;;;;;;;17.00;6.50;;;;;;;;;;5013749;28;20429;-60
2022/12/12 14:13:18;;;;;;;17.85;7.35;;;;;;;;;;5013989;28;20018;-59
2022/12/12 14:15:45;;;;;;;17.95;7.72;;;;;;;;;;5013213;28;20029;-59
2022/12/12 14:18:18;;;;;;;17.90;7.13;;;;;;;;;;5013892;28;20596;-59
2022/12/12 14:20:50;;;;;;;16.95;6.72;;;;;;;;;;5013850;28;20430;-59
2022/12/12 14:23:26;;;;;;;16.98;7.07;;;;;;;;;;5013593;28;20337;-60
2022/12/12 14:25:51;;;;;;;15.77;6.50;;;;;;;;;;5013941;28;20060;-60
2022/12/12 14:28:18;;;;;;;18.77;7.13;;;;;;;;;;5012867;28;20491;-61
2022/12/12 14:30:46;;;;;;;19.17;7.63;;;;;;;;;;5013796;28;20021;-60
2022/12/12 14:33:26;;;;;;;19.35;7.22;;;;;;;;;;5013189;28;20144;-60
2022/12/12 14:36:04;;;;;;;17.27;7.43;;;;;;;;;;5013905;28;20061;-60
2022/12/12 14:38:29;;;;;;;16.02;6.90;;;;;;;;;;5011402;28;20515;-60
2022/12/12 14:40:57;;;;;;;18.70;7.40;;;;;;;;;;5010374;28;20026;-60
2022/12/12 14:43:28;;;;;;;19.50;7.30;;;;;;;;;;5011549;28;20029;-60
2022/12/12 14:45:57;;;;;;;20.10;7.00;;;;;;;;;;5011534;28;20069;-60
2022/12/12 14:48:24;;;;;;;16.33;6.70;;;;;;;;;;5009677;28;20026;-60
2022/12/12 14:50:51;;;;;;;15.70;7.15;;;;;;;;;;5007373;28;20025;-60
2022/12/12 14:53:16;;;;;;;;;;;;;;;;;;4994006;28;20414;-60
2022/12/12 14:55:45;;;;;;;19.75;7.25;;;;;;;;;;5009897;28;20372;-60
2022/12/12 14:58:10;;;;;;;19.23;7.70;;;;;;;;;;5002408;28;20055;-60